Terminal Aerodrome Forecast
Issued by NWS

Home | Current Version | Previous Version | Text Only | Print | Product List | Glossary On
Versions: 1 2 3 4 5 6 7 8 9 10 11 12 13 14 15 16 17 18
000
FTUS41 KBTV 210800 AAA
TAFMPV
TAF AMD
KMPV 210834Z 2109/2206 00000KT P6SM -SHRA OVC050
     FM211800 13006KT 6SM -RA BR OVC030
     FM220200 07004KT 6SM -RA BR OVC020=

USA.gov is the U.S. government's official web portal to all federal, state and local government web resources and services.